sensor_id;sensor_type;location;lat;lon;timestamp;P1;durP1;ratioP1;P2;durP2;ratioP2
71503;SDS011;59323;50.874;7.028;2022-09-21T00:01:50;8.00;;;3.30;;
71503;SDS011;59323;50.874;7.028;2022-09-21T00:04:16;9.20;;;2.97;;
71503;SDS011;59323;50.874;7.028;2022-09-21T00:06:43;8.45;;;3.13;;
71503;SDS011;59323;50.874;7.028;2022-09-21T00:09:21;7.65;;;2.80;;
71503;SDS011;59323;50.874;7.028;2022-09-21T00:11:53;7.50;;;2.50;;
71503;SDS011;59323;50.874;7.028;2022-09-21T00:14:19;6.15;;;2.70;;
71503;SDS011;59323;50.874;7.028;2022-09-21T00:16:44;8.93;;;2.70;;
71503;SDS011;59323;50.874;7.028;2022-09-21T00:19:09;7.90;;;2.97;;
71503;SDS011;59323;50.874;7.028;2022-09-21T00:21:35;8.20;;;3.25;;
71503;SDS011;59323;50.874;7.028;2022-09-21T00:24:02;9.70;;;3.20;;
71503;SDS011;59323;50.874;7.028;2022-09-21T00:26:29;8.95;;;3.05;;
71503;SDS011;59323;50.874;7.028;2022-09-21T00:28:55;7.10;;;2.70;;
71503;SDS011;59323;50.874;7.028;2022-09-21T00:31:22;7.75;;;3.22;;
71503;SDS011;59323;50.874;7.028;2022-09-21T00:33:48;7.88;;;2.97;;
71503;SDS011;59323;50.874;7.028;2022-09-21T00:36:16;8.40;;;3.10;;
71503;SDS011;59323;50.874;7.028;2022-09-21T00:38:43;7.15;;;2.70;;
71503;SDS011;59323;50.874;7.028;2022-09-21T00:41:13;8.75;;;3.28;;
71503;SDS011;59323;50.874;7.028;2022-09-21T00:43:44;8.43;;;2.90;;
71503;SDS011;59323;50.874;7.028;2022-09-21T00:46:17;6.53;;;2.90;;
71503;SDS011;59323;50.874;7.028;2022-09-21T00:48:51;7.57;;;3.00;;
71503;SDS011;59323;50.874;7.028;2022-09-21T00:51:17;9.43;;;3.00;;
71503;SDS011;59323;50.874;7.028;2022-09-21T00:53:43;8.03;;;2.80;;
71503;SDS011;59323;50.874;7.028;2022-09-21T00:56:09;8.88;;;2.92;;
71503;SDS011;59323;50.874;7.028;2022-09-21T00:58:37;9.70;;;2.92;;
71503;SDS011;59323;50.874;7.028;2022-09-21T01:01:08;8.25;;;2.50;;
71503;SDS011;59323;50.874;7.028;2022-09-21T01:03:35;6.97;;;2.50;;
71503;SDS011;59323;50.874;7.028;2022-09-21T01:06:00;9.38;;;2.97;;
71503;SDS011;59323;50.874;7.028;2022-09-21T01:08:25;9.53;;;3.27;;
71503;SDS011;59323;50.874;7.028;2022-09-21T01:11:09;9.20;;;3.10;;
71503;SDS011;59323;50.874;7.028;2022-09-21T01:13:55;6.30;;;2.23;;
71503;SDS011;59323;50.874;7.028;2022-09-21T01:25:07;8.23;;;2.60;;
71503;SDS011;59323;50.874;7.028;2022-09-21T01:30:53;9.30;;;3.08;;
71503;SDS011;59323;50.874;7.028;2022-09-21T01:33:24;10.50;;;3.28;;
71503;SDS011;59323;50.874;7.028;2022-09-21T01:35:55;8.43;;;3.00;;
71503;SDS011;59323;50.874;7.028;2022-09-21T01:38:30;8.88;;;3.13;;
71503;SDS011;59323;50.874;7.028;2022-09-21T01:41:02;7.70;;;2.80;;
71503;SDS011;59323;50.874;7.028;2022-09-21T01:43:39;8.15;;;2.95;;
71503;SDS011;59323;50.874;7.028;2022-09-21T01:46:12;6.13;;;2.55;;
71503;SDS011;59323;50.874;7.028;2022-09-21T01:48:44;9.30;;;3.25;;
71503;SDS011;59323;50.874;7.028;2022-09-21T01:51:12;8.48;;;3.00;;
71503;SDS011;59323;50.874;7.028;2022-09-21T01:53:44;9.33;;;3.10;;
71503;SDS011;59323;50.874;7.028;2022-09-21T01:58:44;7.00;;;3.27;;
71503;SDS011;59323;50.874;7.028;2022-09-21T02:01:26;7.25;;;2.67;;
71503;SDS011;59323;50.874;7.028;2022-09-21T02:03:59;8.82;;;3.00;;
71503;SDS011;59323;50.874;7.028;2022-09-21T02:06:29;6.53;;;2.38;;
71503;SDS011;59323;50.874;7.028;2022-09-21T02:08:56;9.07;;;2.75;;
71503;SDS011;59323;50.874;7.028;2022-09-21T02:11:22;10.07;;;2.90;;
71503;SDS011;59323;50.874;7.028;2022-09-21T02:13:50;9.52;;;3.63;;
71503;SDS011;59323;50.874;7.028;2022-09-21T02:16:33;10.20;;;4.28;;
71503;SDS011;59323;50.874;7.028;2022-09-21T02:24:46;8.40;;;3.88;;
71503;SDS011;59323;50.874;7.028;2022-09-21T02:29:52;9.88;;;4.32;;
71503;SDS011;59323;50.874;7.028;2022-09-21T02:32:28;11.50;;;4.67;;
71503;SDS011;59323;50.874;7.028;2022-09-21T02:35:23;11.65;;;4.15;;
71503;SDS011;59323;50.874;7.028;2022-09-21T02:40:37;7.78;;;3.83;;
71503;SDS011;59323;50.874;7.028;2022-09-21T02:43:25;11.77;;;4.43;;
71503;SDS011;59323;50.874;7.028;2022-09-21T02:46:09;11.30;;;3.67;;
71503;SDS011;59323;50.874;7.028;2022-09-21T02:48:45;9.10;;;4.05;;
71503;SDS011;59323;50.874;7.028;2022-09-21T02:51:29;10.73;;;3.97;;
71503;SDS011;59323;50.874;7.028;2022-09-21T02:54:12;9.18;;;3.75;;
71503;SDS011;59323;50.874;7.028;2022-09-21T02:56:41;10.10;;;3.92;;
71503;SDS011;59323;50.874;7.028;2022-09-21T02:59:08;7.87;;;3.70;;
71503;SDS011;59323;50.874;7.028;2022-09-21T03:01:34;10.00;;;3.60;;
71503;SDS011;59323;50.874;7.028;2022-09-21T03:04:00;10.68;;;3.75;;
71503;SDS011;59323;50.874;7.028;2022-09-21T03:06:26;10.18;;;4.00;;
71503;SDS011;59323;50.874;7.028;2022-09-21T03:08:52;8.07;;;3.30;;
71503;SDS011;59323;50.874;7.028;2022-09-21T03:11:17;8.87;;;3.80;;
71503;SDS011;59323;50.874;7.028;2022-09-21T03:13:43;9.25;;;3.60;;
71503;SDS011;59323;50.874;7.028;2022-09-21T03:16:09;9.38;;;4.30;;
71503;SDS011;59323;50.874;7.028;2022-09-21T03:18:37;9.35;;;3.83;;
71503;SDS011;59323;50.874;7.028;2022-09-21T03:21:06;9.67;;;3.83;;
71503;SDS011;59323;50.874;7.028;2022-09-21T03:23:31;8.70;;;3.72;;
71503;SDS011;59323;50.874;7.028;2022-09-21T03:25:57;12.20;;;3.80;;
71503;SDS011;59323;50.874;7.028;2022-09-21T03:28:25;10.00;;;4.18;;
71503;SDS011;59323;50.874;7.028;2022-09-21T03:30:51;9.95;;;4.43;;
71503;SDS011;59323;50.874;7.028;2022-09-21T03:33:22;11.40;;;4.97;;
71503;SDS011;59323;50.874;7.028;2022-09-21T03:36:06;14.27;;;5.25;;
71503;SDS011;59323;50.874;7.028;2022-09-21T03:41:22;12.13;;;5.03;;
71503;SDS011;59323;50.874;7.028;2022-09-21T03:43:50;9.27;;;4.57;;
71503;SDS011;59323;50.874;7.028;2022-09-21T03:46:16;10.82;;;4.25;;
71503;SDS011;59323;50.874;7.028;2022-09-21T03:48:41;9.80;;;4.30;;
71503;SDS011;59323;50.874;7.028;2022-09-21T03:51:11;9.32;;;4.32;;
71503;SDS011;59323;50.874;7.028;2022-09-21T03:53:39;12.33;;;4.87;;
71503;SDS011;59323;50.874;7.028;2022-09-21T03:56:04;12.20;;;6.07;;
71503;SDS011;59323;50.874;7.028;2022-09-21T03:58:30;10.57;;;4.67;;
71503;SDS011;59323;50.874;7.028;2022-09-21T04:01:03;12.50;;;5.70;;
71503;SDS011;59323;50.874;7.028;2022-09-21T04:03:32;10.07;;;5.30;;
71503;SDS011;59323;50.874;7.028;2022-09-21T04:06:07;14.23;;;5.23;;
71503;SDS011;59323;50.874;7.028;2022-09-21T04:08:36;11.60;;;4.85;;
71503;SDS011;59323;50.874;7.028;2022-09-21T04:11:13;16.13;;;5.72;;
71503;SDS011;59323;50.874;7.028;2022-09-21T04:14:06;11.68;;;4.93;;
71503;SDS011;59323;50.874;7.028;2022-09-21T04:16:34;13.75;;;5.10;;
71503;SDS011;59323;50.874;7.028;2022-09-21T04:19:10;14.70;;;5.30;;
71503;SDS011;59323;50.874;7.028;2022-09-21T04:24:43;10.25;;;4.60;;
71503;SDS011;59323;50.874;7.028;2022-09-21T04:27:17;13.13;;;5.07;;
71503;SDS011;59323;50.874;7.028;2022-09-21T04:29:47;9.67;;;4.63;;
71503;SDS011;59323;50.874;7.028;2022-09-21T04:32:18;10.27;;;4.53;;
71503;SDS011;59323;50.874;7.028;2022-09-21T04:34:49;11.82;;;4.95;;
71503;SDS011;59323;50.874;7.028;2022-09-21T04:37:18;11.18;;;4.43;;
71503;SDS011;59323;50.874;7.028;2022-09-21T04:39:49;9.53;;;3.73;;
71503;SDS011;59323;50.874;7.028;2022-09-21T04:42:29;10.85;;;4.07;;
71503;SDS011;59323;50.874;7.028;2022-09-21T04:45:04;11.88;;;4.45;;
71503;SDS011;59323;50.874;7.028;2022-09-21T04:47:30;11.20;;;4.67;;
71503;SDS011;59323;50.874;7.028;2022-09-21T04:49:58;7.85;;;3.67;;
71503;SDS011;59323;50.874;7.028;2022-09-21T04:52:24;9.93;;;4.30;;
71503;SDS011;59323;50.874;7.028;2022-09-21T04:54:55;10.32;;;4.32;;
71503;SDS011;59323;50.874;7.028;2022-09-21T04:57:39;10.85;;;4.28;;
71503;SDS011;59323;50.874;7.028;2022-09-21T05:00:10;9.32;;;3.70;;
71503;SDS011;59323;50.874;7.028;2022-09-21T05:02:36;9.60;;;3.97;;
71503;SDS011;59323;50.874;7.028;2022-09-21T05:05:05;9.63;;;3.60;;
71503;SDS011;59323;50.874;7.028;2022-09-21T05:07:36;9.18;;;3.97;;
71503;SDS011;59323;50.874;7.028;2022-09-21T05:10:04;9.57;;;3.70;;
71503;SDS011;59323;50.874;7.028;2022-09-21T05:12:37;12.02;;;4.18;;
71503;SDS011;59323;50.874;7.028;2022-09-21T05:15:06;13.40;;;4.97;;
71503;SDS011;59323;50.874;7.028;2022-09-21T05:17:40;12.35;;;4.60;;
71503;SDS011;59323;50.874;7.028;2022-09-21T05:20:25;20.50;;;5.68;;
71503;SDS011;59323;50.874;7.028;2022-09-21T05:22:58;15.73;;;5.60;;
71503;SDS011;59323;50.874;7.028;2022-09-21T05:25:32;21.48;;;5.75;;
71503;SDS011;59323;50.874;7.028;2022-09-21T05:28:13;31.42;;;6.28;;
71503;SDS011;59323;50.874;7.028;2022-09-21T05:39:37;19.10;;;5.65;;
71503;SDS011;59323;50.874;7.028;2022-09-21T05:42:05;17.98;;;5.53;;
71503;SDS011;59323;50.874;7.028;2022-09-21T05:44:33;15.30;;;5.43;;
71503;SDS011;59323;50.874;7.028;2022-09-21T05:50:09;30.47;;;5.47;;
71503;SDS011;59323;50.874;7.028;2022-09-21T05:55:54;17.90;;;5.25;;
71503;SDS011;59323;50.874;7.028;2022-09-21T05:58:49;13.02;;;5.18;;
71503;SDS011;59323;50.874;7.028;2022-09-21T06:04:30;17.77;;;5.03;;
71503;SDS011;59323;50.874;7.028;2022-09-21T06:07:00;56.55;;;5.28;;
71503;SDS011;59323;50.874;7.028;2022-09-21T06:09:30;19.38;;;5.25;;
71503;SDS011;59323;50.874;7.028;2022-09-21T06:12:19;14.82;;;5.00;;
71503;SDS011;59323;50.874;7.028;2022-09-21T06:14:51;12.57;;;5.22;;
71503;SDS011;59323;50.874;7.028;2022-09-21T06:17:53;11.20;;;5.13;;
71503;SDS011;59323;50.874;7.028;2022-09-21T06:20:19;17.65;;;6.43;;
71503;SDS011;59323;50.874;7.028;2022-09-21T06:23:28;13.35;;;5.18;;
71503;SDS011;59323;50.874;7.028;2022-09-21T06:26:15;12.07;;;4.90;;
71503;SDS011;59323;50.874;7.028;2022-09-21T06:29:11;11.43;;;4.65;;
71503;SDS011;59323;50.874;7.028;2022-09-21T06:31:53;13.50;;;4.70;;
71503;SDS011;59323;50.874;7.028;2022-09-21T06:34:36;13.95;;;4.97;;
71503;SDS011;59323;50.874;7.028;2022-09-21T06:37:05;16.90;;;5.20;;
71503;SDS011;59323;50.874;7.028;2022-09-21T06:39:41;10.77;;;4.35;;
71503;SDS011;59323;50.874;7.028;2022-09-21T06:42:21;9.27;;;4.50;;
71503;SDS011;59323;50.874;7.028;2022-09-21T06:45:29;11.23;;;4.20;;
71503;SDS011;59323;50.874;7.028;2022-09-21T06:48:02;10.60;;;4.20;;
71503;SDS011;59323;50.874;7.028;2022-09-21T06:50:39;12.05;;;5.25;;
71503;SDS011;59323;50.874;7.028;2022-09-21T06:53:08;14.07;;;4.97;;
71503;SDS011;59323;50.874;7.028;2022-09-21T06:55:52;10.50;;;4.82;;
71503;SDS011;59323;50.874;7.028;2022-09-21T06:58:20;11.63;;;5.43;;
71503;SDS011;59323;50.874;7.028;2022-09-21T07:00:51;12.13;;;4.63;;
71503;SDS011;59323;50.874;7.028;2022-09-21T07:03:48;11.25;;;4.55;;
71503;SDS011;59323;50.874;7.028;2022-09-21T07:06:23;17.07;;;5.90;;
71503;SDS011;59323;50.874;7.028;2022-09-21T07:08:57;28.83;;;4.90;;
71503;SDS011;59323;50.874;7.028;2022-09-21T07:11:46;16.30;;;6.00;;
71503;SDS011;59323;50.874;7.028;2022-09-21T07:14:36;11.35;;;5.25;;
71503;SDS011;59323;50.874;7.028;2022-09-21T07:17:13;13.20;;;6.25;;
71503;SDS011;59323;50.874;7.028;2022-09-21T07:19:49;14.77;;;6.13;;
71503;SDS011;59323;50.874;7.028;2022-09-21T07:22:15;19.88;;;6.53;;
71503;SDS011;59323;50.874;7.028;2022-09-21T07:24:43;13.85;;;6.35;;
71503;SDS011;59323;50.874;7.028;2022-09-21T07:29:44;13.52;;;6.70;;
71503;SDS011;59323;50.874;7.028;2022-09-21T07:32:11;13.38;;;6.15;;
71503;SDS011;59323;50.874;7.028;2022-09-21T07:34:45;14.63;;;7.40;;
71503;SDS011;59323;50.874;7.028;2022-09-21T07:37:22;13.98;;;6.55;;
71503;SDS011;59323;50.874;7.028;2022-09-21T07:39:57;17.33;;;7.53;;
71503;SDS011;59323;50.874;7.028;2022-09-21T07:42:30;11.48;;;5.85;;
71503;SDS011;59323;50.874;7.028;2022-09-21T07:44:56;12.80;;;6.45;;
71503;SDS011;59323;50.874;7.028;2022-09-21T07:47:27;15.67;;;6.93;;
71503;SDS011;59323;50.874;7.028;2022-09-21T07:50:02;11.88;;;5.90;;
71503;SDS011;59323;50.874;7.028;2022-09-21T07:52:30;14.98;;;6.93;;
71503;SDS011;59323;50.874;7.028;2022-09-21T07:54:57;14.97;;;6.63;;
71503;SDS011;59323;50.874;7.028;2022-09-21T08:00:47;14.40;;;6.80;;
71503;SDS011;59323;50.874;7.028;2022-09-21T08:03:24;14.07;;;6.32;;
71503;SDS011;59323;50.874;7.028;2022-09-21T08:05:55;14.60;;;6.70;;
71503;SDS011;59323;50.874;7.028;2022-09-21T08:08:52;15.05;;;7.75;;
71503;SDS011;59323;50.874;7.028;2022-09-21T08:11:24;15.85;;;7.43;;
71503;SDS011;59323;50.874;7.028;2022-09-21T08:14:01;16.33;;;8.50;;
71503;SDS011;59323;50.874;7.028;2022-09-21T08:16:30;22.85;;;9.48;;
71503;SDS011;59323;50.874;7.028;2022-09-21T08:19:06;16.70;;;8.02;;
71503;SDS011;59323;50.874;7.028;2022-09-21T08:21:32;16.80;;;7.50;;
71503;SDS011;59323;50.874;7.028;2022-09-21T08:23:58;17.40;;;8.40;;
71503;SDS011;59323;50.874;7.028;2022-09-21T08:26:23;20.80;;;8.97;;
71503;SDS011;59323;50.874;7.028;2022-09-21T08:28:50;18.80;;;8.88;;
71503;SDS011;59323;50.874;7.028;2022-09-21T08:31:19;20.80;;;9.87;;
71503;SDS011;59323;50.874;7.028;2022-09-21T08:33:56;17.55;;;9.02;;
71503;SDS011;59323;50.874;7.028;2022-09-21T08:36:22;21.98;;;10.23;;
71503;SDS011;59323;50.874;7.028;2022-09-21T08:38:53;22.97;;;10.00;;
71503;SDS011;59323;50.874;7.028;2022-09-21T08:44:28;22.42;;;9.77;;
71503;SDS011;59323;50.874;7.028;2022-09-21T08:49:35;19.47;;;9.80;;
71503;SDS011;59323;50.874;7.028;2022-09-21T08:52:05;22.35;;;10.40;;
71503;SDS011;59323;50.874;7.028;2022-09-21T08:55:05;22.85;;;11.75;;
71503;SDS011;59323;50.874;7.028;2022-09-21T08:57:46;21.20;;;10.70;;
71503;SDS011;59323;50.874;7.028;2022-09-21T09:00:15;22.67;;;11.82;;
71503;SDS011;59323;50.874;7.028;2022-09-21T09:08:25;25.05;;;12.73;;
71503;SDS011;59323;50.874;7.028;2022-09-21T09:11:00;24.30;;;11.70;;
71503;SDS011;59323;50.874;7.028;2022-09-21T09:14:07;24.23;;;11.95;;
71503;SDS011;59323;50.874;7.028;2022-09-21T09:22:06;23.38;;;11.52;;
71503;SDS011;59323;50.874;7.028;2022-09-21T09:24:42;21.10;;;11.93;;
71503;SDS011;59323;50.874;7.028;2022-09-21T09:27:19;24.58;;;13.20;;
71503;SDS011;59323;50.874;7.028;2022-09-21T09:30:00;21.67;;;10.97;;
71503;SDS011;59323;50.874;7.028;2022-09-21T09:32:40;22.23;;;10.52;;
71503;SDS011;59323;50.874;7.028;2022-09-21T09:35:30;21.48;;;10.27;;
71503;SDS011;59323;50.874;7.028;2022-09-21T09:40:50;18.42;;;10.02;;
71503;SDS011;59323;50.874;7.028;2022-09-21T09:43:30;14.20;;;8.80;;
71503;SDS011;59323;50.874;7.028;2022-09-21T09:51:37;19.52;;;9.18;;
71503;SDS011;59323;50.874;7.028;2022-09-21T09:54:04;17.20;;;8.10;;
71503;SDS011;59323;50.874;7.028;2022-09-21T09:56:37;15.83;;;8.17;;
71503;SDS011;59323;50.874;7.028;2022-09-21T09:59:03;12.85;;;7.38;;
71503;SDS011;59323;50.874;7.028;2022-09-21T10:01:39;13.93;;;6.78;;
71503;SDS011;59323;50.874;7.028;2022-09-21T10:04:14;14.02;;;6.85;;
71503;SDS011;59323;50.874;7.028;2022-09-21T10:06:47;12.50;;;5.67;;
71503;SDS011;59323;50.874;7.028;2022-09-21T10:09:26;12.15;;;5.53;;
71503;SDS011;59323;50.874;7.028;2022-09-21T10:12:02;10.13;;;4.78;;
71503;SDS011;59323;50.874;7.028;2022-09-21T10:14:49;11.82;;;4.93;;
71503;SDS011;59323;50.874;7.028;2022-09-21T10:17:27;10.90;;;5.30;;
71503;SDS011;59323;50.874;7.028;2022-09-21T10:19:59;12.07;;;5.50;;
71503;SDS011;59323;50.874;7.028;2022-09-21T10:22:32;12.88;;;5.40;;
71503;SDS011;59323;50.874;7.028;2022-09-21T10:25:03;14.53;;;4.70;;
71503;SDS011;59323;50.874;7.028;2022-09-21T10:27:41;11.13;;;4.70;;
71503;SDS011;59323;50.874;7.028;2022-09-21T10:33:25;9.30;;;4.07;;
71503;SDS011;59323;50.874;7.028;2022-09-21T10:39:18;9.00;;;2.40;;
71503;SDS011;59323;50.874;7.028;2022-09-21T11:01:25;6.85;;;1.63;;
71503;SDS011;59323;50.874;7.028;2022-09-21T11:06:43;6.47;;;2.15;;
71503;SDS011;59323;50.874;7.028;2022-09-21T11:30:03;5.38;;;1.73;;
71503;SDS011;59323;50.874;7.028;2022-09-21T11:54:20;4.93;;;1.17;;
71503;SDS011;59323;50.874;7.028;2022-09-21T11:57:11;4.75;;;1.20;;
71503;SDS011;59323;50.874;7.028;2022-09-21T12:06:13;3.15;;;1.23;;
71503;SDS011;59323;50.874;7.028;2022-09-21T12:21:12;8.18;;;1.88;;
71503;SDS011;59323;50.874;7.028;2022-09-21T12:27:33;3.88;;;0.90;;
71503;SDS011;59323;50.874;7.028;2022-09-21T12:30:19;2.35;;;0.80;;
71503;SDS011;59323;50.874;7.028;2022-09-21T12:35:57;4.45;;;0.90;;
71503;SDS011;59323;50.874;7.028;2022-09-21T12:42:21;4.53;;;1.02;;
71503;SDS011;59323;50.874;7.028;2022-09-21T12:45:13;4.15;;;1.08;;
71503;SDS011;59323;50.874;7.028;2022-09-21T12:48:26;2.97;;;1.25;;
71503;SDS011;59323;50.874;7.028;2022-09-21T12:51:15;2.60;;;0.75;;
71503;SDS011;59323;50.874;7.028;2022-09-21T12:53:57;4.47;;;0.90;;
71503;SDS011;59323;50.874;7.028;2022-09-21T12:57:15;4.38;;;1.10;;
71503;SDS011;59323;50.874;7.028;2022-09-21T13:00:10;4.05;;;0.95;;
71503;SDS011;59323;50.874;7.028;2022-09-21T13:06:38;4.57;;;1.10;;
71503;SDS011;59323;50.874;7.028;2022-09-21T13:13:12;2.42;;;0.85;;
71503;SDS011;59323;50.874;7.028;2022-09-21T13:16:30;4.03;;;0.93;;
71503;SDS011;59323;50.874;7.028;2022-09-21T13:34:38;1.92;;;0.95;;
71503;SDS011;59323;50.874;7.028;2022-09-21T13:47:36;1.98;;;0.68;;
71503;SDS011;59323;50.874;7.028;2022-09-21T13:50:34;4.10;;;0.90;;
71503;SDS011;59323;50.874;7.028;2022-09-21T13:53:27;2.38;;;0.93;;
71503;SDS011;59323;50.874;7.028;2022-09-21T13:56:32;3.03;;;0.80;;
71503;SDS011;59323;50.874;7.028;2022-09-21T13:59:37;2.30;;;0.75;;
71503;SDS011;59323;50.874;7.028;2022-09-21T14:02:31;3.80;;;1.02;;
71503;SDS011;59323;50.874;7.028;2022-09-21T14:08:04;2.85;;;0.70;;
71503;SDS011;59323;50.874;7.028;2022-09-21T14:11:07;2.93;;;1.00;;
71503;SDS011;59323;50.874;7.028;2022-09-21T14:13:58;3.55;;;0.93;;
71503;SDS011;59323;50.874;7.028;2022-09-21T14:17:01;1.92;;;0.90;;
71503;SDS011;59323;50.874;7.028;2022-09-21T14:20:23;2.22;;;0.98;;
71503;SDS011;59323;50.874;7.028;2022-09-21T14:32:28;2.53;;;0.90;;
71503;SDS011;59323;50.874;7.028;2022-09-21T14:35:07;2.38;;;0.63;;
71503;SDS011;59323;50.874;7.028;2022-09-21T14:38:13;2.75;;;1.00;;
71503;SDS011;59323;50.874;7.028;2022-09-21T14:41:17;4.23;;;0.67;;
71503;SDS011;59323;50.874;7.028;2022-09-21T14:43:48;1.02;;;0.50;;
71503;SDS011;59323;50.874;7.028;2022-09-21T15:00:52;4.45;;;0.80;;
71503;SDS011;59323;50.874;7.028;2022-09-21T15:06:50;4.07;;;1.20;;
71503;SDS011;59323;50.874;7.028;2022-09-21T15:16:15;3.92;;;0.95;;
71503;SDS011;59323;50.874;7.028;2022-09-21T15:19:32;1.65;;;0.57;;
71503;SDS011;59323;50.874;7.028;2022-09-21T15:24:46;2.50;;;0.73;;
71503;SDS011;59323;50.874;7.028;2022-09-21T15:27:27;2.88;;;0.80;;
71503;SDS011;59323;50.874;7.028;2022-09-21T15:30:19;3.88;;;0.60;;
71503;SDS011;59323;50.874;7.028;2022-09-21T15:33:08;3.00;;;0.70;;
71503;SDS011;59323;50.874;7.028;2022-09-21T15:35:47;3.10;;;0.88;;
71503;SDS011;59323;50.874;7.028;2022-09-21T15:38:29;3.67;;;0.70;;
71503;SDS011;59323;50.874;7.028;2022-09-21T15:40:57;2.78;;;0.90;;
71503;SDS011;59323;50.874;7.028;2022-09-21T15:47:02;1.67;;;0.70;;
71503;SDS011;59323;50.874;7.028;2022-09-21T15:49:39;3.63;;;0.80;;
71503;SDS011;59323;50.874;7.028;2022-09-21T15:58:36;3.08;;;0.85;;
71503;SDS011;59323;50.874;7.028;2022-09-21T16:01:29;3.10;;;0.88;;
71503;SDS011;59323;50.874;7.028;2022-09-21T16:04:10;2.30;;;0.70;;
71503;SDS011;59323;50.874;7.028;2022-09-21T16:07:06;2.97;;;0.60;;
71503;SDS011;59323;50.874;7.028;2022-09-21T16:13:27;2.10;;;0.77;;
71503;SDS011;59323;50.874;7.028;2022-09-21T16:16:20;2.15;;;1.08;;
71503;SDS011;59323;50.874;7.028;2022-09-21T16:18:49;2.73;;;1.00;;
71503;SDS011;59323;50.874;7.028;2022-09-21T16:21:45;4.32;;;0.90;;
71503;SDS011;59323;50.874;7.028;2022-09-21T16:24:17;2.85;;;1.20;;
71503;SDS011;59323;50.874;7.028;2022-09-21T16:26:56;4.07;;;0.90;;
71503;SDS011;59323;50.874;7.028;2022-09-21T16:29:36;4.88;;;0.90;;
71503;SDS011;59323;50.874;7.028;2022-09-21T16:35:30;4.20;;;1.10;;
71503;SDS011;59323;50.874;7.028;2022-09-21T16:38:39;3.95;;;1.10;;
71503;SDS011;59323;50.874;7.028;2022-09-21T16:41:07;2.63;;;0.80;;
71503;SDS011;59323;50.874;7.028;2022-09-21T16:43:50;2.03;;;0.60;;
71503;SDS011;59323;50.874;7.028;2022-09-21T16:46:25;3.77;;;0.63;;
71503;SDS011;59323;50.874;7.028;2022-09-21T16:48:59;2.38;;;0.70;;
71503;SDS011;59323;50.874;7.028;2022-09-21T16:51:43;2.28;;;0.70;;
71503;SDS011;59323;50.874;7.028;2022-09-21T16:54:16;2.97;;;0.85;;
71503;SDS011;59323;50.874;7.028;2022-09-21T16:56:52;3.13;;;1.35;;
71503;SDS011;59323;50.874;7.028;2022-09-21T16:59:25;3.00;;;1.10;;
71503;SDS011;59323;50.874;7.028;2022-09-21T17:01:57;3.53;;;0.80;;
71503;SDS011;59323;50.874;7.028;2022-09-21T17:04:29;3.00;;;1.10;;
71503;SDS011;59323;50.874;7.028;2022-09-21T17:07:03;5.38;;;1.20;;
71503;SDS011;59323;50.874;7.028;2022-09-21T17:09:35;2.55;;;0.80;;
71503;SDS011;59323;50.874;7.028;2022-09-21T17:12:08;3.77;;;1.33;;
71503;SDS011;59323;50.874;7.028;2022-09-21T17:14:39;3.03;;;1.27;;
71503;SDS011;59323;50.874;7.028;2022-09-21T17:17:11;2.78;;;0.93;;
71503;SDS011;59323;50.874;7.028;2022-09-21T17:19:45;4.60;;;1.10;;
71503;SDS011;59323;50.874;7.028;2022-09-21T17:22:13;3.40;;;0.80;;
71503;SDS011;59323;50.874;7.028;2022-09-21T17:24:43;2.83;;;0.70;;
71503;SDS011;59323;50.874;7.028;2022-09-21T17:27:18;3.83;;;1.20;;
71503;SDS011;59323;50.874;7.028;2022-09-21T17:29:46;2.60;;;0.98;;
71503;SDS011;59323;50.874;7.028;2022-09-21T17:32:14;6.20;;;1.20;;
71503;SDS011;59323;50.874;7.028;2022-09-21T17:34:44;4.03;;;1.35;;
71503;SDS011;59323;50.874;7.028;2022-09-21T17:37:20;3.80;;;1.73;;
71503;SDS011;59323;50.874;7.028;2022-09-21T17:39:45;5.18;;;1.60;;
71503;SDS011;59323;50.874;7.028;2022-09-21T17:42:16;6.77;;;1.97;;
71503;SDS011;59323;50.874;7.028;2022-09-21T17:48:11;6.22;;;2.40;;
71503;SDS011;59323;50.874;7.028;2022-09-21T17:50:46;6.50;;;2.10;;
71503;SDS011;59323;50.874;7.028;2022-09-21T17:53:32;7.60;;;2.27;;
71503;SDS011;59323;50.874;7.028;2022-09-21T17:55:59;6.35;;;2.17;;
71503;SDS011;59323;50.874;7.028;2022-09-21T17:59:05;6.93;;;2.50;;
71503;SDS011;59323;50.874;7.028;2022-09-21T18:01:38;7.97;;;2.40;;
71503;SDS011;59323;50.874;7.028;2022-09-21T18:04:08;7.57;;;1.97;;
71503;SDS011;59323;50.874;7.028;2022-09-21T18:06:37;5.13;;;1.73;;
71503;SDS011;59323;50.874;7.028;2022-09-21T18:09:03;6.13;;;2.20;;
71503;SDS011;59323;50.874;7.028;2022-09-21T18:15:02;4.93;;;1.50;;
71503;SDS011;59323;50.874;7.028;2022-09-21T18:26:04;5.97;;;1.13;;
71503;SDS011;59323;50.874;7.028;2022-09-21T18:32:30;4.90;;;1.38;;
71503;SDS011;59323;50.874;7.028;2022-09-21T18:51:16;6.82;;;2.58;;
71503;SDS011;59323;50.874;7.028;2022-09-21T18:54:06;7.93;;;3.40;;
71503;SDS011;59323;50.874;7.028;2022-09-21T18:56:51;10.95;;;4.55;;
71503;SDS011;59323;50.874;7.028;2022-09-21T18:59:23;11.93;;;4.10;;
71503;SDS011;59323;50.874;7.028;2022-09-21T19:01:49;10.77;;;3.97;;
71503;SDS011;59323;50.874;7.028;2022-09-21T19:04:17;11.30;;;4.80;;
71503;SDS011;59323;50.874;7.028;2022-09-21T19:15:21;9.57;;;4.00;;
71503;SDS011;59323;50.874;7.028;2022-09-21T19:17:58;10.90;;;4.18;;
71503;SDS011;59323;50.874;7.028;2022-09-21T19:23:42;8.73;;;3.15;;
71503;SDS011;59323;50.874;7.028;2022-09-21T19:29:32;6.32;;;2.17;;
71503;SDS011;59323;50.874;7.028;2022-09-21T19:32:38;10.20;;;2.47;;
71503;SDS011;59323;50.874;7.028;2022-09-21T19:35:20;6.72;;;2.25;;
71503;SDS011;59323;50.874;7.028;2022-09-21T19:37:51;6.25;;;1.88;;
71503;SDS011;59323;50.874;7.028;2022-09-21T19:40:22;8.87;;;2.30;;
71503;SDS011;59323;50.874;7.028;2022-09-21T19:44:00;6.32;;;2.28;;
71503;SDS011;59323;50.874;7.028;2022-09-21T19:46:58;6.60;;;2.10;;
71503;SDS011;59323;50.874;7.028;2022-09-21T19:50:16;8.25;;;2.08;;
71503;SDS011;59323;50.874;7.028;2022-09-21T19:56:22;8.93;;;2.70;;
71503;SDS011;59323;50.874;7.028;2022-09-21T19:59:21;8.80;;;3.08;;
71503;SDS011;59323;50.874;7.028;2022-09-21T20:09:40;7.53;;;2.70;;
71503;SDS011;59323;50.874;7.028;2022-09-21T20:19:32;6.47;;;2.55;;
71503;SDS011;59323;50.874;7.028;2022-09-21T20:22:36;7.57;;;2.75;;
71503;SDS011;59323;50.874;7.028;2022-09-21T20:28:49;6.73;;;2.50;;
71503;SDS011;59323;50.874;7.028;2022-09-21T20:31:25;9.77;;;2.92;;
71503;SDS011;59323;50.874;7.028;2022-09-21T20:33:50;8.90;;;3.28;;
71503;SDS011;59323;50.874;7.028;2022-09-21T20:36:16;8.17;;;2.70;;
71503;SDS011;59323;50.874;7.028;2022-09-21T20:38:41;7.45;;;2.92;;
71503;SDS011;59323;50.874;7.028;2022-09-21T20:41:11;7.20;;;2.65;;
71503;SDS011;59323;50.874;7.028;2022-09-21T20:43:40;8.07;;;3.20;;
71503;SDS011;59323;50.874;7.028;2022-09-21T20:46:11;7.50;;;3.10;;
71503;SDS011;59323;50.874;7.028;2022-09-21T20:48:37;6.43;;;2.40;;
71503;SDS011;59323;50.874;7.028;2022-09-21T20:51:10;11.30;;;3.10;;
71503;SDS011;59323;50.874;7.028;2022-09-21T20:53:36;6.70;;;2.67;;
71503;SDS011;59323;50.874;7.028;2022-09-21T20:56:06;8.77;;;3.40;;
71503;SDS011;59323;50.874;7.028;2022-09-21T20:58:31;8.93;;;3.03;;
71503;SDS011;59323;50.874;7.028;2022-09-21T21:01:08;7.53;;;2.75;;
71503;SDS011;59323;50.874;7.028;2022-09-21T21:03:34;8.77;;;3.37;;
71503;SDS011;59323;50.874;7.028;2022-09-21T21:06:07;8.45;;;3.13;;
71503;SDS011;59323;50.874;7.028;2022-09-21T21:08:37;8.68;;;2.95;;
71503;SDS011;59323;50.874;7.028;2022-09-21T21:11:03;9.45;;;3.70;;
71503;SDS011;59323;50.874;7.028;2022-09-21T21:13:32;9.00;;;3.33;;
71503;SDS011;59323;50.874;7.028;2022-09-21T21:16:00;7.50;;;3.05;;
71503;SDS011;59323;50.874;7.028;2022-09-21T21:18:28;9.23;;;3.63;;